sensor_id;sensor_type;location;lat;lon;timestamp;temperature;humidity
35457;DHT22;21575;51.538;-0.084;2022-07-29T00:00:43;17.00;99.90
35457;DHT22;21575;51.538;-0.084;2022-07-29T00:03:13;16.90;99.90
35457;DHT22;21575;51.538;-0.084;2022-07-29T00:05:40;16.90;99.90
35457;DHT22;21575;51.538;-0.084;2022-07-29T00:08:06;16.90;99.90
35457;DHT22;21575;51.538;-0.084;2022-07-29T00:10:32;16.90;99.90
35457;DHT22;21575;51.538;-0.084;2022-07-29T00:12:58;16.90;99.90
35457;DHT22;21575;51.538;-0.084;2022-07-29T00:15:24;16.90;99.90
35457;DHT22;21575;51.538;-0.084;2022-07-29T00:17:49;16.90;99.90
35457;DHT22;21575;51.538;-0.084;2022-07-29T00:20:15;16.90;99.90
35457;DHT22;21575;51.538;-0.084;2022-07-29T00:22:41;16.80;99.90
35457;DHT22;21575;51.538;-0.084;2022-07-29T00:25:06;16.80;99.90
35457;DHT22;21575;51.538;-0.084;2022-07-29T00:27:34;16.80;99.90
35457;DHT22;21575;51.538;-0.084;2022-07-29T00:29:59;16.80;99.90
35457;DHT22;21575;51.538;-0.084;2022-07-29T00:32:25;16.80;99.90
35457;DHT22;21575;51.538;-0.084;2022-07-29T00:34:50;16.80;99.90
35457;DHT22;21575;51.538;-0.084;2022-07-29T00:37:35;16.80;99.90
35457;DHT22;21575;51.538;-0.084;2022-07-29T00:40:00;16.80;99.90
35457;DHT22;21575;51.538;-0.084;2022-07-29T00:42:26;16.80;99.90
35457;DHT22;21575;51.538;-0.084;2022-07-29T00:44:52;16.80;99.90
35457;DHT22;21575;51.538;-0.084;2022-07-29T00:47:18;16.80;99.90
35457;DHT22;21575;51.538;-0.084;2022-07-29T00:49:44;16.80;99.90
35457;DHT22;21575;51.538;-0.084;2022-07-29T00:52:11;16.80;99.90
35457;DHT22;21575;51.538;-0.084;2022-07-29T00:54:38;16.80;99.90
35457;DHT22;21575;51.538;-0.084;2022-07-29T00:57:06;16.80;99.90
35457;DHT22;21575;51.538;-0.084;2022-07-29T00:59:32;16.80;99.90
35457;DHT22;21575;51.538;-0.084;2022-07-29T01:01:57;16.80;99.90
35457;DHT22;21575;51.538;-0.084;2022-07-29T01:04:23;16.70;99.90
35457;DHT22;21575;51.538;-0.084;2022-07-29T01:06:49;16.70;99.90
35457;DHT22;21575;51.538;-0.084;2022-07-29T01:09:16;16.70;99.90
35457;DHT22;21575;51.538;-0.084;2022-07-29T01:11:43;16.70;99.90
35457;DHT22;21575;51.538;-0.084;2022-07-29T01:14:10;16.70;99.90
35457;DHT22;21575;51.538;-0.084;2022-07-29T01:16:48;16.70;99.90
35457;DHT22;21575;51.538;-0.084;2022-07-29T01:25:34;16.70;99.90
35457;DHT22;21575;51.538;-0.084;2022-07-29T01:30:58;16.70;99.90
35457;DHT22;21575;51.538;-0.084;2022-07-29T01:33:26;16.70;99.90
35457;DHT22;21575;51.538;-0.084;2022-07-29T01:36:14;16.70;99.90
35457;DHT22;21575;51.538;-0.084;2022-07-29T01:38:42;16.70;99.90
35457;DHT22;21575;51.538;-0.084;2022-07-29T01:41:14;16.70;99.90
35457;DHT22;21575;51.538;-0.084;2022-07-29T01:43:53;16.70;99.90
35457;DHT22;21575;51.538;-0.084;2022-07-29T01:46:25;16.70;99.90
35457;DHT22;21575;51.538;-0.084;2022-07-29T01:48:57;16.70;99.90
35457;DHT22;21575;51.538;-0.084;2022-07-29T01:51:51;16.70;99.90
35457;DHT22;21575;51.538;-0.084;2022-07-29T01:54:34;16.70;99.90
35457;DHT22;21575;51.538;-0.084;2022-07-29T01:57:01;16.70;99.90
35457;DHT22;21575;51.538;-0.084;2022-07-29T01:59:30;16.70;99.90
35457;DHT22;21575;51.538;-0.084;2022-07-29T02:01:58;16.70;99.90
35457;DHT22;21575;51.538;-0.084;2022-07-29T02:04:25;16.70;99.90
35457;DHT22;21575;51.538;-0.084;2022-07-29T02:06:53;16.70;99.90
35457;DHT22;21575;51.538;-0.084;2022-07-29T02:09:21;16.70;99.90
35457;DHT22;21575;51.538;-0.084;2022-07-29T02:11:50;16.70;99.90
35457;DHT22;21575;51.538;-0.084;2022-07-29T02:14:18;16.60;99.90
35457;DHT22;21575;51.538;-0.084;2022-07-29T02:16:47;16.70;99.90
35457;DHT22;21575;51.538;-0.084;2022-07-29T02:19:14;16.60;99.90
35457;DHT22;21575;51.538;-0.084;2022-07-29T02:21:40;16.60;99.90
35457;DHT22;21575;51.538;-0.084;2022-07-29T02:24:09;16.60;99.90
35457;DHT22;21575;51.538;-0.084;2022-07-29T02:26:37;16.60;99.90
35457;DHT22;21575;51.538;-0.084;2022-07-29T02:29:05;16.50;99.90
35457;DHT22;21575;51.538;-0.084;2022-07-29T02:31:33;16.50;99.90
35457;DHT22;21575;51.538;-0.084;2022-07-29T02:34:02;16.50;99.90
35457;DHT22;21575;51.538;-0.084;2022-07-29T02:36:29;16.50;99.90
35457;DHT22;21575;51.538;-0.084;2022-07-29T02:38:55;16.50;99.90
35457;DHT22;21575;51.538;-0.084;2022-07-29T02:41:42;16.50;99.90
35457;DHT22;21575;51.538;-0.084;2022-07-29T02:44:16;16.50;99.90
35457;DHT22;21575;51.538;-0.084;2022-07-29T02:46:51;16.50;99.90
35457;DHT22;21575;51.538;-0.084;2022-07-29T02:49:37;16.50;99.90
35457;DHT22;21575;51.538;-0.084;2022-07-29T02:54:48;16.40;99.90
35457;DHT22;21575;51.538;-0.084;2022-07-29T02:57:31;16.40;99.90
35457;DHT22;21575;51.538;-0.084;2022-07-29T03:00:03;16.40;99.90
35457;DHT22;21575;51.538;-0.084;2022-07-29T03:02:35;16.40;99.90
35457;DHT22;21575;51.538;-0.084;2022-07-29T03:05:03;16.30;99.90
35457;DHT22;21575;51.538;-0.084;2022-07-29T03:07:29;16.30;99.90
35457;DHT22;21575;51.538;-0.084;2022-07-29T03:09:55;16.30;99.90
35457;DHT22;21575;51.538;-0.084;2022-07-29T03:12:22;16.30;99.90
35457;DHT22;21575;51.538;-0.084;2022-07-29T03:14:49;16.20;99.90
35457;DHT22;21575;51.538;-0.084;2022-07-29T03:17:15;16.20;99.90
35457;DHT22;21575;51.538;-0.084;2022-07-29T03:19:42;16.20;99.90
35457;DHT22;21575;51.538;-0.084;2022-07-29T03:22:08;16.10;99.90
35457;DHT22;21575;51.538;-0.084;2022-07-29T03:24:36;16.10;99.90
35457;DHT22;21575;51.538;-0.084;2022-07-29T03:27:04;16.10;99.90
35457;DHT22;21575;51.538;-0.084;2022-07-29T03:29:30;16.10;99.90
35457;DHT22;21575;51.538;-0.084;2022-07-29T03:31:56;16.00;99.90
35457;DHT22;21575;51.538;-0.084;2022-07-29T03:34:22;16.00;99.90
35457;DHT22;21575;51.538;-0.084;2022-07-29T03:36:48;16.00;99.90
35457;DHT22;21575;51.538;-0.084;2022-07-29T03:39:21;16.00;99.90
35457;DHT22;21575;51.538;-0.084;2022-07-29T03:41:49;15.90;99.90
35457;DHT22;21575;51.538;-0.084;2022-07-29T03:44:17;15.90;99.90
35457;DHT22;21575;51.538;-0.084;2022-07-29T03:46:46;15.90;99.90
35457;DHT22;21575;51.538;-0.084;2022-07-29T03:49:15;15.80;99.90
35457;DHT22;21575;51.538;-0.084;2022-07-29T03:51:42;15.80;99.90
35457;DHT22;21575;51.538;-0.084;2022-07-29T03:54:08;15.80;99.90
35457;DHT22;21575;51.538;-0.084;2022-07-29T03:56:38;15.80;99.90
35457;DHT22;21575;51.538;-0.084;2022-07-29T03:59:05;15.80;99.90
35457;DHT22;21575;51.538;-0.084;2022-07-29T04:01:33;15.80;99.90
35457;DHT22;21575;51.538;-0.084;2022-07-29T04:04:00;15.80;99.90
35457;DHT22;21575;51.538;-0.084;2022-07-29T04:06:26;15.70;99.90
35457;DHT22;21575;51.538;-0.084;2022-07-29T04:08:52;15.70;99.90
35457;DHT22;21575;51.538;-0.084;2022-07-29T04:11:18;15.70;99.90
35457;DHT22;21575;51.538;-0.084;2022-07-29T04:13:44;15.60;99.90
35457;DHT22;21575;51.538;-0.084;2022-07-29T04:16:10;15.60;99.90
35457;DHT22;21575;51.538;-0.084;2022-07-29T04:18:35;15.60;99.90
35457;DHT22;21575;51.538;-0.084;2022-07-29T04:21:01;15.60;99.90
35457;DHT22;21575;51.538;-0.084;2022-07-29T04:23:32;15.50;99.90
35457;DHT22;21575;51.538;-0.084;2022-07-29T04:25:58;15.50;99.90
35457;DHT22;21575;51.538;-0.084;2022-07-29T04:28:25;15.50;99.90
35457;DHT22;21575;51.538;-0.084;2022-07-29T04:30:51;15.50;99.90
35457;DHT22;21575;51.538;-0.084;2022-07-29T04:33:16;15.50;99.90
35457;DHT22;21575;51.538;-0.084;2022-07-29T04:35:42;15.50;99.90
35457;DHT22;21575;51.538;-0.084;2022-07-29T04:38:08;15.50;99.90
35457;DHT22;21575;51.538;-0.084;2022-07-29T04:40:34;15.40;99.90
35457;DHT22;21575;51.538;-0.084;2022-07-29T04:43:00;15.40;99.90
35457;DHT22;21575;51.538;-0.084;2022-07-29T04:45:27;15.40;99.90
35457;DHT22;21575;51.538;-0.084;2022-07-29T04:47:53;15.40;99.90
35457;DHT22;21575;51.538;-0.084;2022-07-29T04:50:19;15.40;99.90
35457;DHT22;21575;51.538;-0.084;2022-07-29T04:52:45;15.40;99.90
35457;DHT22;21575;51.538;-0.084;2022-07-29T04:55:10;15.50;99.90
35457;DHT22;21575;51.538;-0.084;2022-07-29T04:57:36;15.50;99.90
35457;DHT22;21575;51.538;-0.084;2022-07-29T05:00:03;15.50;99.90
35457;DHT22;21575;51.538;-0.084;2022-07-29T05:02:30;15.50;99.90
35457;DHT22;21575;51.538;-0.084;2022-07-29T05:04:55;15.60;99.90
35457;DHT22;21575;51.538;-0.084;2022-07-29T05:07:21;15.60;99.90
35457;DHT22;21575;51.538;-0.084;2022-07-29T05:09:47;15.60;99.90
35457;DHT22;21575;51.538;-0.084;2022-07-29T05:12:13;15.60;99.90
35457;DHT22;21575;51.538;-0.084;2022-07-29T05:14:38;15.60;99.90
35457;DHT22;21575;51.538;-0.084;2022-07-29T05:17:04;15.60;99.90
35457;DHT22;21575;51.538;-0.084;2022-07-29T05:19:30;15.60;99.90
35457;DHT22;21575;51.538;-0.084;2022-07-29T05:21:57;15.60;99.90
35457;DHT22;21575;51.538;-0.084;2022-07-29T05:24:22;15.70;99.90
35457;DHT22;21575;51.538;-0.084;2022-07-29T05:26:48;15.70;99.90
35457;DHT22;21575;51.538;-0.084;2022-07-29T05:29:14;15.70;99.90
35457;DHT22;21575;51.538;-0.084;2022-07-29T05:31:39;15.70;99.90
35457;DHT22;21575;51.538;-0.084;2022-07-29T05:34:05;15.70;99.90
35457;DHT22;21575;51.538;-0.084;2022-07-29T05:36:31;15.80;99.90
35457;DHT22;21575;51.538;-0.084;2022-07-29T05:38:56;15.80;99.90
35457;DHT22;21575;51.538;-0.084;2022-07-29T05:41:23;15.80;99.90
35457;DHT22;21575;51.538;-0.084;2022-07-29T05:43:48;15.90;99.90
35457;DHT22;21575;51.538;-0.084;2022-07-29T05:46:14;15.90;99.90
35457;DHT22;21575;51.538;-0.084;2022-07-29T05:48:40;16.00;99.90
35457;DHT22;21575;51.538;-0.084;2022-07-29T05:51:06;16.00;99.90
35457;DHT22;21575;51.538;-0.084;2022-07-29T05:53:31;16.10;99.90
35457;DHT22;21575;51.538;-0.084;2022-07-29T05:55:57;16.20;99.90
35457;DHT22;21575;51.538;-0.084;2022-07-29T05:58:23;16.30;99.90
35457;DHT22;21575;51.538;-0.084;2022-07-29T06:00:48;16.50;99.90
35457;DHT22;21575;51.538;-0.084;2022-07-29T06:03:14;16.60;99.90
35457;DHT22;21575;51.538;-0.084;2022-07-29T06:05:40;16.70;99.90
35457;DHT22;21575;51.538;-0.084;2022-07-29T06:08:05;16.90;99.90
35457;DHT22;21575;51.538;-0.084;2022-07-29T06:10:34;17.00;99.90
35457;DHT22;21575;51.538;-0.084;2022-07-29T06:12:59;17.20;99.90
35457;DHT22;21575;51.538;-0.084;2022-07-29T06:15:25;17.20;99.90
35457;DHT22;21575;51.538;-0.084;2022-07-29T06:17:51;17.30;99.90
35457;DHT22;21575;51.538;-0.084;2022-07-29T06:20:18;17.50;99.90
35457;DHT22;21575;51.538;-0.084;2022-07-29T06:22:43;17.60;99.90
35457;DHT22;21575;51.538;-0.084;2022-07-29T06:25:09;17.70;99.90
35457;DHT22;21575;51.538;-0.084;2022-07-29T06:27:35;17.90;99.90
35457;DHT22;21575;51.538;-0.084;2022-07-29T06:30:01;18.00;99.90
35457;DHT22;21575;51.538;-0.084;2022-07-29T06:32:27;18.00;99.90
35457;DHT22;21575;51.538;-0.084;2022-07-29T06:34:53;18.10;99.90
35457;DHT22;21575;51.538;-0.084;2022-07-29T06:37:18;18.20;99.90
35457;DHT22;21575;51.538;-0.084;2022-07-29T06:39:44;18.30;99.90
35457;DHT22;21575;51.538;-0.084;2022-07-29T06:42:09;18.40;99.90
35457;DHT22;21575;51.538;-0.084;2022-07-29T06:44:35;18.60;99.90
35457;DHT22;21575;51.538;-0.084;2022-07-29T06:47:01;18.70;99.90
35457;DHT22;21575;51.538;-0.084;2022-07-29T06:49:27;18.90;99.90
35457;DHT22;21575;51.538;-0.084;2022-07-29T06:51:54;19.00;99.90
35457;DHT22;21575;51.538;-0.084;2022-07-29T06:54:20;19.20;99.90
35457;DHT22;21575;51.538;-0.084;2022-07-29T06:56:45;19.30;99.90
35457;DHT22;21575;51.538;-0.084;2022-07-29T06:59:12;19.40;99.90
35457;DHT22;21575;51.538;-0.084;2022-07-29T07:01:40;19.50;99.90
35457;DHT22;21575;51.538;-0.084;2022-07-29T07:04:07;19.60;99.90
35457;DHT22;21575;51.538;-0.084;2022-07-29T07:06:34;19.70;99.90
35457;DHT22;21575;51.538;-0.084;2022-07-29T07:09:00;19.80;99.90
35457;DHT22;21575;51.538;-0.084;2022-07-29T07:11:25;19.80;99.90
35457;DHT22;21575;51.538;-0.084;2022-07-29T07:13:51;19.90;99.90
35457;DHT22;21575;51.538;-0.084;2022-07-29T07:16:16;19.90;99.90
35457;DHT22;21575;51.538;-0.084;2022-07-29T07:18:42;19.90;99.90
35457;DHT22;21575;51.538;-0.084;2022-07-29T07:21:10;20.00;99.90
35457;DHT22;21575;51.538;-0.084;2022-07-29T07:23:36;20.00;99.90
35457;DHT22;21575;51.538;-0.084;2022-07-29T07:26:02;20.10;99.90
35457;DHT22;21575;51.538;-0.084;2022-07-29T07:28:28;20.10;99.90
35457;DHT22;21575;51.538;-0.084;2022-07-29T07:30:54;20.00;99.90
35457;DHT22;21575;51.538;-0.084;2022-07-29T07:33:20;20.00;99.90
35457;DHT22;21575;51.538;-0.084;2022-07-29T07:35:46;19.90;99.90
35457;DHT22;21575;51.538;-0.084;2022-07-29T07:38:12;19.90;99.90
35457;DHT22;21575;51.538;-0.084;2022-07-29T07:40:37;19.80;99.90
35457;DHT22;21575;51.538;-0.084;2022-07-29T07:43:03;19.80;99.90
35457;DHT22;21575;51.538;-0.084;2022-07-29T07:45:29;19.80;99.90
35457;DHT22;21575;51.538;-0.084;2022-07-29T07:47:54;19.90;99.90
35457;DHT22;21575;51.538;-0.084;2022-07-29T07:50:20;19.90;99.90
35457;DHT22;21575;51.538;-0.084;2022-07-29T07:52:50;20.00;99.90
35457;DHT22;21575;51.538;-0.084;2022-07-29T07:55:17;20.00;99.90
35457;DHT22;21575;51.538;-0.084;2022-07-29T07:57:44;20.00;99.90
35457;DHT22;21575;51.538;-0.084;2022-07-29T08:00:10;20.00;99.90
35457;DHT22;21575;51.538;-0.084;2022-07-29T08:02:37;20.00;99.90
35457;DHT22;21575;51.538;-0.084;2022-07-29T08:05:04;20.10;99.90
35457;DHT22;21575;51.538;-0.084;2022-07-29T08:07:30;20.20;99.90
35457;DHT22;21575;51.538;-0.084;2022-07-29T08:09:56;20.20;99.90
35457;DHT22;21575;51.538;-0.084;2022-07-29T08:12:21;20.20;99.90
35457;DHT22;21575;51.538;-0.084;2022-07-29T08:14:47;20.30;99.90
35457;DHT22;21575;51.538;-0.084;2022-07-29T08:17:13;20.40;99.90
35457;DHT22;21575;51.538;-0.084;2022-07-29T08:19:38;20.50;99.90
35457;DHT22;21575;51.538;-0.084;2022-07-29T08:22:04;20.50;99.90
35457;DHT22;21575;51.538;-0.084;2022-07-29T08:24:29;20.60;99.90
35457;DHT22;21575;51.538;-0.084;2022-07-29T08:27:14;20.60;99.90
35457;DHT22;21575;51.538;-0.084;2022-07-29T08:29:40;20.60;99.90
35457;DHT22;21575;51.538;-0.084;2022-07-29T08:32:06;20.70;99.90
35457;DHT22;21575;51.538;-0.084;2022-07-29T08:34:32;20.60;99.90
35457;DHT22;21575;51.538;-0.084;2022-07-29T08:36:58;20.60;99.90
35457;DHT22;21575;51.538;-0.084;2022-07-29T08:39:24;20.70;99.90
35457;DHT22;21575;51.538;-0.084;2022-07-29T08:41:50;20.70;99.90
35457;DHT22;21575;51.538;-0.084;2022-07-29T08:44:17;20.70;99.90
35457;DHT22;21575;51.538;-0.084;2022-07-29T08:46:43;20.70;99.90
35457;DHT22;21575;51.538;-0.084;2022-07-29T08:49:09;20.70;99.90
35457;DHT22;21575;51.538;-0.084;2022-07-29T08:51:36;20.70;99.90
35457;DHT22;21575;51.538;-0.084;2022-07-29T08:54:04;20.70;99.90
35457;DHT22;21575;51.538;-0.084;2022-07-29T08:56:30;20.80;99.90
35457;DHT22;21575;51.538;-0.084;2022-07-29T08:58:58;20.80;99.90
35457;DHT22;21575;51.538;-0.084;2022-07-29T09:01:27;20.80;99.90
35457;DHT22;21575;51.538;-0.084;2022-07-29T09:03:58;20.90;99.90
35457;DHT22;21575;51.538;-0.084;2022-07-29T09:06:30;21.00;99.90
35457;DHT22;21575;51.538;-0.084;2022-07-29T09:08:59;21.00;99.90
35457;DHT22;21575;51.538;-0.084;2022-07-29T09:11:25;21.10;99.90
35457;DHT22;21575;51.538;-0.084;2022-07-29T09:13:51;21.10;99.90
35457;DHT22;21575;51.538;-0.084;2022-07-29T09:16:16;21.20;99.90
35457;DHT22;21575;51.538;-0.084;2022-07-29T09:18:44;21.20;99.90
35457;DHT22;21575;51.538;-0.084;2022-07-29T09:21:13;21.30;99.90
35457;DHT22;21575;51.538;-0.084;2022-07-29T09:24:11;21.30;99.90
35457;DHT22;21575;51.538;-0.084;2022-07-29T09:26:40;21.50;99.90
35457;DHT22;21575;51.538;-0.084;2022-07-29T09:29:14;21.50;99.90
35457;DHT22;21575;51.538;-0.084;2022-07-29T09:31:43;21.60;99.90
35457;DHT22;21575;51.538;-0.084;2022-07-29T09:34:10;21.80;99.90
35457;DHT22;21575;51.538;-0.084;2022-07-29T09:36:47;21.70;99.90
35457;DHT22;21575;51.538;-0.084;2022-07-29T09:39:14;21.70;99.90
35457;DHT22;21575;51.538;-0.084;2022-07-29T09:41:49;21.70;99.90
35457;DHT22;21575;51.538;-0.084;2022-07-29T09:44:16;21.80;99.90
35457;DHT22;21575;51.538;-0.084;2022-07-29T09:47:03;21.80;99.90
35457;DHT22;21575;51.538;-0.084;2022-07-29T09:49:49;21.80;99.90
35457;DHT22;21575;51.538;-0.084;2022-07-29T09:52:15;21.80;99.90
35457;DHT22;21575;51.538;-0.084;2022-07-29T09:54:41;21.90;99.90
35457;DHT22;21575;51.538;-0.084;2022-07-29T09:57:09;21.90;99.90
35457;DHT22;21575;51.538;-0.084;2022-07-29T09:59:38;22.00;99.90
35457;DHT22;21575;51.538;-0.084;2022-07-29T10:02:14;22.00;99.90
35457;DHT22;21575;51.538;-0.084;2022-07-29T10:04:41;22.00;99.90
35457;DHT22;21575;51.538;-0.084;2022-07-29T10:07:07;22.00;99.90
35457;DHT22;21575;51.538;-0.084;2022-07-29T10:09:34;22.10;99.90
35457;DHT22;21575;51.538;-0.084;2022-07-29T10:12:11;22.10;99.90
35457;DHT22;21575;51.538;-0.084;2022-07-29T10:14:39;22.20;99.90
35457;DHT22;21575;51.538;-0.084;2022-07-29T10:17:07;22.30;99.90
35457;DHT22;21575;51.538;-0.084;2022-07-29T10:19:34;22.30;99.90
35457;DHT22;21575;51.538;-0.084;2022-07-29T10:22:03;22.50;99.90
35457;DHT22;21575;51.538;-0.084;2022-07-29T10:24:31;22.40;99.90
35457;DHT22;21575;51.538;-0.084;2022-07-29T10:26:59;22.30;99.90
35457;DHT22;21575;51.538;-0.084;2022-07-29T10:29:26;22.30;99.90
35457;DHT22;21575;51.538;-0.084;2022-07-29T10:32:19;22.40;99.90
35457;DHT22;21575;51.538;-0.084;2022-07-29T10:35:06;22.50;99.90
35457;DHT22;21575;51.538;-0.084;2022-07-29T10:43:33;22.50;99.90
35457;DHT22;21575;51.538;-0.084;2022-07-29T10:46:02;22.50;99.90
35457;DHT22;21575;51.538;-0.084;2022-07-29T10:48:28;22.50;99.90
35457;DHT22;21575;51.538;-0.084;2022-07-29T10:51:02;22.50;99.90
35457;DHT22;21575;51.538;-0.084;2022-07-29T10:53:52;22.60;99.90
35457;DHT22;21575;51.538;-0.084;2022-07-29T10:56:32;22.60;99.90
35457;DHT22;21575;51.538;-0.084;2022-07-29T11:01:43;22.70;99.90
35457;DHT22;21575;51.538;-0.084;2022-07-29T11:04:09;22.80;99.90
35457;DHT22;21575;51.538;-0.084;2022-07-29T11:09:23;23.10;99.90
35457;DHT22;21575;51.538;-0.084;2022-07-29T11:11:49;23.20;99.90
35457;DHT22;21575;51.538;-0.084;2022-07-29T11:14:15;23.30;99.90
35457;DHT22;21575;51.538;-0.084;2022-07-29T11:17:04;23.40;99.90
35457;DHT22;21575;51.538;-0.084;2022-07-29T11:19:31;23.40;99.90
35457;DHT22;21575;51.538;-0.084;2022-07-29T11:21:56;23.50;99.90
35457;DHT22;21575;51.538;-0.084;2022-07-29T11:24:28;23.40;99.90
35457;DHT22;21575;51.538;-0.084;2022-07-29T11:27:30;23.40;99.90
35457;DHT22;21575;51.538;-0.084;2022-07-29T11:29:58;23.50;99.90
35457;DHT22;21575;51.538;-0.084;2022-07-29T11:32:39;23.60;99.90
35457;DHT22;21575;51.538;-0.084;2022-07-29T11:35:25;23.60;99.90
35457;DHT22;21575;51.538;-0.084;2022-07-29T11:41:19;23.60;99.90
35457;DHT22;21575;51.538;-0.084;2022-07-29T11:43:47;23.70;99.90
35457;DHT22;21575;51.538;-0.084;2022-07-29T11:46:13;23.70;99.90
35457;DHT22;21575;51.538;-0.084;2022-07-29T11:48:43;23.70;99.90
35457;DHT22;21575;51.538;-0.084;2022-07-29T11:51:10;23.70;99.90
35457;DHT22;21575;51.538;-0.084;2022-07-29T11:53:37;23.70;99.90
35457;DHT22;21575;51.538;-0.084;2022-07-29T11:56:04;23.80;99.90
35457;DHT22;21575;51.538;-0.084;2022-07-29T11:58:33;23.80;99.90
35457;DHT22;21575;51.538;-0.084;2022-07-29T12:01:00;23.90;99.90
35457;DHT22;21575;51.538;-0.084;2022-07-29T12:03:28;24.00;99.90
35457;DHT22;21575;51.538;-0.084;2022-07-29T12:05:54;24.10;99.90
35457;DHT22;21575;51.538;-0.084;2022-07-29T12:08:22;24.10;99.90
35457;DHT22;21575;51.538;-0.084;2022-07-29T12:10:51;24.20;99.90
35457;DHT22;21575;51.538;-0.084;2022-07-29T12:13:19;24.30;99.90
35457;DHT22;21575;51.538;-0.084;2022-07-29T12:15:55;24.40;99.90
35457;DHT22;21575;51.538;-0.084;2022-07-29T12:18:22;24.50;99.90
35457;DHT22;21575;51.538;-0.084;2022-07-29T12:20:48;24.60;99.90
35457;DHT22;21575;51.538;-0.084;2022-07-29T12:23:15;24.60;99.90
35457;DHT22;21575;51.538;-0.084;2022-07-29T12:25:42;24.70;99.90
35457;DHT22;21575;51.538;-0.084;2022-07-29T12:28:10;24.70;99.90
35457;DHT22;21575;51.538;-0.084;2022-07-29T12:33:12;24.80;99.90
35457;DHT22;21575;51.538;-0.084;2022-07-29T12:35:39;24.90;99.90
35457;DHT22;21575;51.538;-0.084;2022-07-29T12:38:05;24.90;99.90
35457;DHT22;21575;51.538;-0.084;2022-07-29T12:40:31;25.10;99.90
35457;DHT22;21575;51.538;-0.084;2022-07-29T12:45:41;25.20;99.90
35457;DHT22;21575;51.538;-0.084;2022-07-29T12:48:07;25.30;99.90
35457;DHT22;21575;51.538;-0.084;2022-07-29T12:50:51;25.40;99.90
35457;DHT22;21575;51.538;-0.084;2022-07-29T12:53:18;25.40;99.90
35457;DHT22;21575;51.538;-0.084;2022-07-29T12:55:46;25.60;99.90
35457;DHT22;21575;51.538;-0.084;2022-07-29T12:58:33;25.70;99.90
35457;DHT22;21575;51.538;-0.084;2022-07-29T13:01:05;25.70;99.80
35457;DHT22;21575;51.538;-0.084;2022-07-29T13:06:31;25.90;98.90
35457;DHT22;21575;51.538;-0.084;2022-07-29T13:09:16;26.00;98.50
35457;DHT22;21575;51.538;-0.084;2022-07-29T13:11:44;26.10;98.30
35457;DHT22;21575;51.538;-0.084;2022-07-29T13:14:12;26.10;98.20
35457;DHT22;21575;51.538;-0.084;2022-07-29T13:19:34;26.10;98.00
35457;DHT22;21575;51.538;-0.084;2022-07-29T13:21:59;26.10;97.60
35457;DHT22;21575;51.538;-0.084;2022-07-29T13:24:25;26.10;97.70
35457;DHT22;21575;51.538;-0.084;2022-07-29T13:26:51;26.20;97.20
35457;DHT22;21575;51.538;-0.084;2022-07-29T13:29:17;26.20;97.50
35457;DHT22;21575;51.538;-0.084;2022-07-29T13:31:43;26.30;97.00
35457;DHT22;21575;51.538;-0.084;2022-07-29T13:34:09;26.40;96.90
35457;DHT22;21575;51.538;-0.084;2022-07-29T13:36:34;26.50;96.80
35457;DHT22;21575;51.538;-0.084;2022-07-29T13:39:00;26.70;96.40
35457;DHT22;21575;51.538;-0.084;2022-07-29T13:41:28;26.70;95.90
35457;DHT22;21575;51.538;-0.084;2022-07-29T13:43:53;26.70;96.10
35457;DHT22;21575;51.538;-0.084;2022-07-29T13:46:19;26.70;95.40
35457;DHT22;21575;51.538;-0.084;2022-07-29T13:48:45;26.60;95.80
35457;DHT22;21575;51.538;-0.084;2022-07-29T13:51:11;26.60;95.90
35457;DHT22;21575;51.538;-0.084;2022-07-29T13:53:36;26.60;95.30
35457;DHT22;21575;51.538;-0.084;2022-07-29T13:56:02;26.60;95.00
35457;DHT22;21575;51.538;-0.084;2022-07-29T13:58:28;26.70;94.70
35457;DHT22;21575;51.538;-0.084;2022-07-29T14:00:53;26.80;94.50
35457;DHT22;21575;51.538;-0.084;2022-07-29T14:03:19;26.90;94.50
35457;DHT22;21575;51.538;-0.084;2022-07-29T14:05:45;27.00;95.00
35457;DHT22;21575;51.538;-0.084;2022-07-29T14:08:10;27.10;94.50
35457;DHT22;21575;51.538;-0.084;2022-07-29T14:10:36;27.20;94.20
35457;DHT22;21575;51.538;-0.084;2022-07-29T14:13:02;27.20;94.30
35457;DHT22;21575;51.538;-0.084;2022-07-29T14:15:27;27.30;93.70
35457;DHT22;21575;51.538;-0.084;2022-07-29T14:17:53;27.30;93.60
35457;DHT22;21575;51.538;-0.084;2022-07-29T14:20:19;27.30;93.30
35457;DHT22;21575;51.538;-0.084;2022-07-29T14:22:45;27.30;92.80
35457;DHT22;21575;51.538;-0.084;2022-07-29T14:25:10;27.40;92.80
35457;DHT22;21575;51.538;-0.084;2022-07-29T14:27:36;27.40;92.90
35457;DHT22;21575;51.538;-0.084;2022-07-29T14:30:01;27.40;92.60
35457;DHT22;21575;51.538;-0.084;2022-07-29T14:32:27;27.50;92.30
35457;DHT22;21575;51.538;-0.084;2022-07-29T14:34:53;27.30;92.40
35457;DHT22;21575;51.538;-0.084;2022-07-29T14:37:18;27.30;92.50
35457;DHT22;21575;51.538;-0.084;2022-07-29T14:39:44;27.20;92.50
35457;DHT22;21575;51.538;-0.084;2022-07-29T14:42:10;27.20;92.20
35457;DHT22;21575;51.538;-0.084;2022-07-29T14:44:36;27.00;92.30
35457;DHT22;21575;51.538;-0.084;2022-07-29T14:47:01;26.90;92.50
35457;DHT22;21575;51.538;-0.084;2022-07-29T14:49:27;26.80;92.50
35457;DHT22;21575;51.538;-0.084;2022-07-29T14:51:53;26.60;92.40
35457;DHT22;21575;51.538;-0.084;2022-07-29T14:54:18;26.50;92.70
35457;DHT22;21575;51.538;-0.084;2022-07-29T14:56:44;26.50;92.30
35457;DHT22;21575;51.538;-0.084;2022-07-29T14:59:10;26.50;92.40
35457;DHT22;21575;51.538;-0.084;2022-07-29T15:01:36;26.50;92.30
35457;DHT22;21575;51.538;-0.084;2022-07-29T15:04:02;26.70;92.30
35457;DHT22;21575;51.538;-0.084;2022-07-29T15:06:27;26.80;92.10
35457;DHT22;21575;51.538;-0.084;2022-07-29T15:08:53;26.90;92.00
35457;DHT22;21575;51.538;-0.084;2022-07-29T15:11:19;27.00;92.00
35457;DHT22;21575;51.538;-0.084;2022-07-29T15:13:44;27.00;91.80
35457;DHT22;21575;51.538;-0.084;2022-07-29T15:16:10;27.00;91.50
35457;DHT22;21575;51.538;-0.084;2022-07-29T15:18:36;27.00;91.80
35457;DHT22;21575;51.538;-0.084;2022-07-29T15:21:04;26.90;92.00
35457;DHT22;21575;51.538;-0.084;2022-07-29T15:23:31;26.90;91.60
35457;DHT22;21575;51.538;-0.084;2022-07-29T15:25:57;27.00;91.90
35457;DHT22;21575;51.538;-0.084;2022-07-29T15:28:23;27.10;91.70
35457;DHT22;21575;51.538;-0.084;2022-07-29T15:30:48;27.10;91.20
35457;DHT22;21575;51.538;-0.084;2022-07-29T15:33:14;27.10;91.30
35457;DHT22;21575;51.538;-0.084;2022-07-29T15:35:39;27.00;91.30
35457;DHT22;21575;51.538;-0.084;2022-07-29T15:38:05;26.80;91.30
35457;DHT22;21575;51.538;-0.084;2022-07-29T15:40:31;26.80;91.30
35457;DHT22;21575;51.538;-0.084;2022-07-29T15:42:56;26.70;91.30
35457;DHT22;21575;51.538;-0.084;2022-07-29T15:45:25;26.60;91.40
35457;DHT22;21575;51.538;-0.084;2022-07-29T15:47:51;26.50;91.40
35457;DHT22;21575;51.538;-0.084;2022-07-29T15:50:17;26.50;91.20
35457;DHT22;21575;51.538;-0.084;2022-07-29T15:52:44;26.50;91.20
35457;DHT22;21575;51.538;-0.084;2022-07-29T15:55:10;26.50;91.20
35457;DHT22;21575;51.538;-0.084;2022-07-29T15:57:35;26.50;91.10